Time;durP1;ratioP1;P1;durP2;ratioP2;P2;SDS_P1;SDS_P2;PMS_P1;PMS_P2;Temp;Humidity;BMP_temperature;BMP_pressure;BME280_temperature;BME280_humidity;BME280_pressure;Samples;Min_cycle;Max_cycle;Signal;HPM_P1;HPM_P2
2023/12/12 00:00:46;;;;;;;8.15;4.72;;;;;;;13.81;100.00;101367.16;10565775;27;20487;-80
2023/12/12 00:06:11;;;;;;;6.93;5.35;;;;;;;14.03;100.00;101352.38;10602622;27;20497;-80
2023/12/12 00:11:34;;;;;;;6.88;4.80;;;;;;;14.22;100.00;101353.47;10603076;27;20150;-80
2023/12/12 00:16:56;;;;;;;10.18;5.28;;;;;;;14.34;100.00;101354.47;10597200;27;20085;-80
2023/12/12 00:22:20;;;;;;;10.25;6.97;;;;;;;14.26;100.00;101366.78;10560837;28;20509;-80
2023/12/12 00:27:42;;;;;;;11.23;6.75;;;;;;;14.04;100.00;101377.16;10561274;28;20051;-80
2023/12/12 00:33:04;;;;;;;7.50;5.47;;;;;;;13.80;100.00;101386.59;10565440;28;20051;-81
2023/12/12 00:38:29;;;;;;;10.57;4.40;;;;;;;13.86;100.00;101381.38;10579383;28;20111;-80
2023/12/12 00:43:51;;;;;;;9.70;4.35;;;;;;;14.10;100.00;101383.44;10569147;28;20485;-80
2023/12/12 00:49:14;;;;;;;6.82;4.32;;;;;;;14.21;100.00;101370.28;10602857;27;20043;-81
2023/12/12 00:54:37;;;;;;;8.95;4.10;;;;;;;14.31;100.00;101366.81;10592658;28;20642;-80
2023/12/12 01:00:00;;;;;;;8.90;5.20;;;;;;;14.29;100.00;101358.84;10583403;28;20120;-80
2023/12/12 01:05:22;;;;;;;8.32;4.57;;;;;;;14.41;100.00;101350.16;10578386;27;20047;-80
2023/12/12 01:10:46;;;;;;;7.20;4.50;;;;;;;14.64;100.00;101337.03;10582880;27;20052;-79
2023/12/12 01:16:08;;;;;;;9.02;4.63;;;;;;;14.79;100.00;101333.63;10574494;27;20071;-80
2023/12/12 01:21:31;;;;;;;11.40;4.65;;;;;;;14.96;100.00;101321.38;10574251;27;20066;-81
2023/12/12 01:26:54;;;;;;;12.32;6.65;;;;;;;15.03;100.00;101324.03;10571806;27;20527;-79
2023/12/12 01:32:17;;;;;;;5.95;4.15;;;;;;;15.15;100.00;101316.16;10580950;27;20488;-80
2023/12/12 01:37:39;;;;;;;9.23;5.50;;;;;;;15.12;100.00;101317.91;10584385;27;20063;-80
2023/12/12 01:43:06;;;;;;;10.43;5.32;;;;;;;14.95;100.00;101315.16;10605251;27;20096;-80
2023/12/12 01:48:30;;;;;;;15.43;10.53;;;;;;;14.88;100.00;101315.09;10586880;27;20070;-80
2023/12/12 01:53:53;;;;;;;8.07;5.75;;;;;;;14.99;100.00;101324.03;10569490;27;20574;-80
2023/12/12 01:59:18;;;;;;;9.80;5.65;;;;;;;15.14;100.00;101317.03;10572689;27;20080;-79
2023/12/12 02:04:41;;;;;;;6.72;4.28;;;;;;;15.16;100.00;101325.91;10602339;27;20048;-79
2023/12/12 02:10:03;;;;;;;7.80;4.45;;;;;;;15.21;100.00;101325.06;10590656;27;20043;-79
2023/12/12 02:15:27;;;;;;;5.38;4.18;;;;;;;15.33;100.00;101330.44;10602413;27;20050;-79
2023/12/12 02:20:49;;;;;;;6.88;4.15;;;;;;;15.40;100.00;101324.28;10580303;27;20108;-79
2023/12/12 02:26:13;;;;;;;6.85;4.63;;;;;;;15.47;100.00;101329.63;10576284;27;20047;-79
2023/12/12 02:31:36;;;;;;;7.40;4.15;;;;;;;15.42;100.00;101319.84;10564400;28;20590;-79
2023/12/12 02:36:58;;;;;;;8.60;5.07;;;;;;;15.42;100.00;101323.41;10559340;27;20134;-78
2023/12/12 02:42:22;;;;;;;9.88;6.80;;;;;;;15.27;100.00;101323.31;10582932;27;20044;-78
2023/12/12 02:47:44;;;;;;;13.75;10.13;;;;;;;15.01;100.00;101323.16;10583700;27;20108;-78
2023/12/12 02:53:06;;;;;;;15.45;11.88;;;;;;;14.71;100.00;101329.13;10564053;28;20405;-79
2023/12/12 02:58:30;;;;;;;8.27;6.20;;;;;;;14.54;100.00;101335.19;10578882;27;20108;-79
2023/12/12 03:03:53;;;;;;;6.28;4.07;;;;;;;14.42;100.00;101332.44;10587006;27;20397;-79
2023/12/12 03:09:15;;;;;;;5.15;3.70;;;;;;;14.66;100.00;101322.00;10571749;27;20050;-79
2023/12/12 03:14:39;;;;;;;8.15;4.03;;;;;;;14.92;100.00;101323.09;10581138;27;20043;-78
2023/12/12 03:20:01;;;;;;;5.70;3.30;;;;;;;15.09;100.00;101310.81;10567080;27;20044;-78
2023/12/12 03:25:24;;;;;;;7.35;4.25;;;;;;;15.03;100.00;101324.03;10583553;27;20569;-78
2023/12/12 03:30:47;;;;;;;5.78;4.10;;;;;;;14.75;100.00;101335.38;10588966;27;20531;-79
2023/12/12 03:36:10;;;;;;;5.97;4.03;;;;;;;14.86;100.00;101336.34;10599839;27;20119;-79
2023/12/12 03:41:33;;;;;;;4.07;3.65;;;;;;;14.73;100.00;101323.84;10579579;27;20067;-79
2023/12/12 03:46:57;;;;;;;4.97;3.10;;;;;;;14.64;100.00;101334.38;10591282;27;20059;-80
2023/12/12 03:52:19;;;;;;;7.13;4.63;;;;;;;14.85;100.00;101334.56;10567368;27;20039;-79
2023/12/12 03:57:41;;;;;;;6.45;4.93;;;;;;;14.96;100.00;101335.56;10585849;27;20111;-79
2023/12/12 04:03:05;;;;;;;11.68;6.85;;;;;;;14.87;100.00;101346.09;10598255;27;20043;-78
2023/12/12 04:08:28;;;;;;;16.83;10.13;;;;;;;14.92;100.00;101368.28;10583141;27;20047;-79
2023/12/12 04:13:51;;;;;;;33.70;21.02;;;;;;;14.77;100.00;101366.41;10570748;27;20051;-79
2023/12/12 04:19:14;;;;;;;11.73;6.70;;;;;;;14.48;100.00;101369.69;10584669;27;20043;-79
2023/12/12 04:24:37;;;;;;;19.40;14.85;;;;;;;14.47;100.00;101379.41;10560502;28;20092;-78
2023/12/12 04:29:59;;;;;;;27.77;23.85;;;;;;;14.57;100.00;101401.66;10579437;27;20071;-78
2023/12/12 04:35:23;;;;;;;9.23;7.65;;;;;;;14.47;100.00;101407.75;10597579;28;20059;-78
2023/12/12 04:40:45;;;;;;;5.97;4.30;;;;;;;14.08;100.00;101413.50;10576235;28;20696;-78
2023/12/12 04:46:09;;;;;;;10.70;4.53;;;;;;;13.99;100.00;101424.88;10607589;27;20059;-79
2023/12/12 04:51:33;;;;;;;6.07;3.70;;;;;;;14.09;100.00;101434.75;10575582;27;20052;-79
2023/12/12 04:56:55;;;;;;;6.55;4.10;;;;;;;14.10;100.00;101436.53;10567815;27;20388;-78
2023/12/12 05:02:17;;;;;;;11.98;6.40;;;;;;;13.98;100.00;101438.16;10593031;27;20488;-79
2023/12/12 05:07:41;;;;;;;4.45;3.00;;;;;;;13.86;100.00;101447.72;10582589;27;20132;-79
2023/12/12 05:13:04;;;;;;;5.45;4.00;;;;;;;13.95;100.00;101441.66;10583461;27;20044;-80
2023/12/12 05:18:26;;;;;;;11.73;8.93;;;;;;;13.76;100.00;101435.22;10589189;27;20050;-78
2023/12/12 05:23:50;;;;;;;10.18;8.38;;;;;;;13.63;100.00;101432.38;10580617;27;20047;-78
2023/12/12 05:29:13;;;;;;;16.42;10.70;;;;;;;13.54;100.00;101426.06;10585452;27;20051;-78
2023/12/12 05:34:36;;;;;;;18.95;10.05;;;;;;;13.54;100.00;101434.03;10568790;27;20055;-78
2023/12/12 05:39:59;;;;;;;12.57;7.75;;;;;;;13.50;100.00;101418.06;10586641;27;20044;-78
2023/12/12 05:45:22;;;;;;;6.57;5.72;;;;;;;13.46;100.00;101410.91;10581755;27;20435;-78
2023/12/12 05:50:45;;;;;;;8.68;5.72;;;;;;;13.43;100.00;101411.78;10598465;27;20047;-78
2023/12/12 05:56:13;;;;;;;8.68;5.63;;;;;;;13.64;100.00;101412.94;10594871;27;20058;-78
2023/12/12 06:01:36;;;;;;;17.95;14.65;;;;;;;13.68;100.00;101415.66;10564816;27;20065;-78
2023/12/12 06:06:58;;;;;;;64.90;50.05;;;;;;;13.89;100.00;101423.91;10586604;27;20039;-78
2023/12/12 06:12:22;;;;;;;80.72;62.22;;;;;;;14.27;100.00;101424.34;10588796;27;20442;-79
2023/12/12 06:17:44;;;;;;;69.82;56.00;;;;;;;17.29;100.00;101419.72;10580945;27;20044;-78
2023/12/12 06:23:06;;;;;;;61.42;51.45;;;;;;;20.43;100.00;101397.69;10576984;27;20100;-79
2023/12/12 06:28:30;;;;;;;35.40;29.50;;;;;;;22.21;100.00;101403.41;10590071;27;20450;-78
2023/12/12 06:33:53;;;;;;;15.82;12.13;;;;;;;22.93;100.00;101401.75;10575664;27;20048;-77
2023/12/12 06:39:15;;;;;;;5.78;4.47;;;;;;;23.34;100.00;101387.19;10604158;27;20063;-78
2023/12/12 06:44:39;;;;;;;9.55;6.10;;;;;;;23.69;100.00;101388.97;10582892;27;20039;-78
2023/12/12 06:50:03;;;;;;;7.45;5.60;;;;;;;24.39;100.00;101398.56;10566029;27;20078;-78
2023/12/12 06:55:25;;;;;;;5.20;3.85;;;;;;;24.74;100.00;101396.56;10580329;27;20039;-78
2023/12/12 07:00:49;;;;;;;7.60;5.28;;;;;;;24.72;100.00;101395.72;10602856;27;20492;-78
2023/12/12 07:06:11;;;;;;;4.45;2.97;;;;;;;24.92;100.00;101380.63;10588498;27;20184;-77
2023/12/12 07:11:34;;;;;;;3.83;3.40;;;;;;;25.18;95.27;101382.44;10578414;27;20092;-76
2023/12/12 07:16:58;;;;;;;3.65;3.28;;;;;;;25.44;89.57;101388.75;10579554;27;20505;-76
2023/12/12 07:22:21;;;;;;;6.30;3.80;;;;;;;25.59;86.50;101380.13;10582601;27;20043;-77
2023/12/12 07:27:43;;;;;;;3.95;2.85;;;;;;;25.97;87.70;101389.50;10582524;27;20481;-77
2023/12/12 07:33:08;;;;;;;2.88;2.67;;;;;;;26.73;73.28;101392.78;10559335;27;20047;-76
2023/12/12 07:38:30;;;;;;;3.60;2.67;;;;;;;26.34;75.34;101394.41;10589044;27;20071;-76
2023/12/12 07:43:52;;;;;;;4.55;3.78;;;;;;;26.91;70.22;101402.03;10563836;27;20052;-76
2023/12/12 07:49:16;;;;;;;8.20;7.40;;;;;;;27.58;66.26;101396.41;10593612;27;20136;-77
2023/12/12 07:54:38;;;;;;;5.53;2.33;;;;;;;29.51;55.44;101404.19;10590909;27;20043;-77
2023/12/12 08:00:01;;;;;;;6.05;4.03;;;;;;;30.58;48.97;101420.16;10580341;27;20092;-77
2023/12/12 08:05:25;;;;;;;4.57;3.28;;;;;;;31.54;45.47;101421.66;10573626;28;20047;-77
2023/12/12 08:10:47;;;;;;;4.22;2.30;;;;;;;32.15;44.12;101436.16;10579140;27;20059;-78
2023/12/12 08:16:10;;;;;;;3.80;3.30;;;;;;;29.24;49.16;101420.09;10564732;27;20043;-77
2023/12/12 08:21:34;;;;;;;4.00;2.90;;;;;;;26.78;67.03;101417.00;10576415;27;20066;-77
2023/12/12 08:26:57;;;;;;;3.65;2.38;;;;;;;28.35;56.59;101408.25;10573623;27;20055;-76
2023/12/12 08:32:19;;;;;;;4.70;2.40;;;;;;;30.31;47.21;101398.03;10586192;27;20129;-77
2023/12/12 08:37:43;;;;;;;4.18;1.90;;;;;;;31.33;43.57;101401.13;10562541;28;20043;-77
2023/12/12 08:43:05;;;;;;;2.65;2.17;;;;;;;31.53;43.75;101387.13;10559806;28;20657;-77
2023/12/12 08:48:28;;;;;;;2.25;1.88;;;;;;;32.44;40.54;101386.78;10544018;28;20494;-77
2023/12/12 08:53:52;;;;;;;3.00;2.00;;;;;;;33.03;38.48;101381.94;10558835;28;20043;-77
2023/12/12 08:59:14;;;;;;;4.45;1.92;;;;;;;32.78;37.95;101369.06;10544658;28;20047;-78
2023/12/12 09:04:38;;;;;;;7.68;2.42;;;;;;;32.74;37.00;101359.31;10581602;28;20047;-77
2023/12/12 09:10:03;;;;;;;4.35;2.58;;;;;;;33.00;36.94;101354.81;10600209;28;20058;-77
2023/12/12 09:15:26;;;;;;;1.42;1.25;;;;;;;33.35;35.68;101352.34;10588512;28;20154;-78
2023/12/12 09:20:48;;;;;;;3.13;1.42;;;;;;;32.19;36.15;101339.31;10558409;28;20043;-76
2023/12/12 09:26:16;;;;;;;2.42;1.63;;;;;;;28.16;42.26;101325.91;10565985;27;20079;-78
2023/12/12 09:31:38;;;;;;;;;;;;;;;27.65;45.06;101325.53;10588784;27;20075;-77
2023/12/12 09:37:00;;;;;;;2.80;1.90;;;;;;;26.22;47.07;101309.09;10580384;27;20440;-77
2023/12/12 09:42:25;;;;;;;3.25;2.03;;;;;;;24.51;55.51;101303.66;10608044;27;20039;-77
2023/12/12 09:47:48;;;;;;;2.53;1.30;;;;;;;23.76;60.64;101297.03;10607130;27;20511;-77
2023/12/12 09:53:13;;;;;;;2.10;1.88;;;;;;;23.56;63.39;101287.78;10605375;27;20528;-77
2023/12/12 09:58:36;;;;;;;1.95;0.90;;;;;;;24.39;58.24;101303.19;10551104;28;20115;-77
2023/12/12 10:04:02;;;;;;;1.40;1.13;;;;;;;25.36;53.68;101294.38;10577890;27;20071;-77
2023/12/12 10:09:24;;;;;;;1.17;1.08;;;;;;;25.35;51.48;101301.63;10585198;27;20508;-77
2023/12/12 10:14:48;;;;;;;4.38;1.50;;;;;;;25.70;50.72;101321.09;10567108;28;20096;-79
2023/12/12 10:20:11;;;;;;;2.15;1.15;;;;;;;24.72;53.72;101339.88;10568096;27;20441;-77
2023/12/12 10:25:34;;;;;;;2.88;1.30;;;;;;;24.05;58.84;101314.13;10606504;27;20054;-77
2023/12/12 10:30:58;;;;;;;4.60;2.42;;;;;;;24.22;60.30;101296.50;10591581;27;20104;-77
2023/12/12 10:36:21;;;;;;;4.13;1.67;;;;;;;24.93;55.77;101284.25;10606802;27;20043;-77
2023/12/12 10:41:52;;;;;;;3.75;1.85;;;;;;;24.34;55.69;101261.97;10576731;28;20056;-77
2023/12/12 10:47:17;;;;;;;1.92;1.40;;;;;;;25.30;52.43;101225.22;10549058;27;20082;-77
2023/12/12 10:52:41;;;;;;;1.52;1.20;;;;;;;27.29;45.94;101192.47;10568863;27;20051;-77
2023/12/12 10:58:05;;;;;;;1.75;1.20;;;;;;;28.39;42.37;101200.66;10562362;28;20047;-78
2023/12/12 11:03:29;;;;;;;7.15;1.55;;;;;;;29.13;40.69;101152.34;10584479;27;20042;-77
2023/12/12 11:08:53;;;;;;;2.05;0.90;;;;;;;28.45;41.62;101170.47;10584351;27;20099;-78
2023/12/12 11:14:17;;;;;;;2.00;1.50;;;;;;;27.31;44.00;101147.13;10572110;27;20054;-78
2023/12/12 11:19:41;;;;;;;3.65;1.40;;;;;;;26.06;45.12;101146.44;10569222;27;20516;-77
2023/12/12 11:25:07;;;;;;;3.55;1.35;;;;;;;25.45;48.23;101142.63;10601438;27;20039;-77
2023/12/12 11:30:37;;;;;;;2.65;1.52;;;;;;;24.81;51.97;101145.06;10567015;28;20048;-78
2023/12/12 11:36:01;;;;;;;1.52;1.20;;;;;;;24.54;52.16;101132.59;10579090;27;20110;-76
2023/12/12 11:41:26;;;;;;;2.75;1.50;;;;;;;23.35;57.09;101138.34;10569473;27;20043;-77
2023/12/12 11:46:51;;;;;;;2.60;1.50;;;;;;;22.83;61.45;101125.56;10579601;27;20063;-77
2023/12/12 11:52:48;;;;;;;5.88;1.90;;;;;;;22.69;65.23;101136.69;10554675;27;20445;-77
2023/12/12 11:58:10;;;;;;;2.38;1.30;;;;;;;23.49;64.47;101116.41;10591929;27;20054;-77
2023/12/12 12:03:33;;;;;;;8.82;5.63;;;;;;;23.38;64.90;101111.28;10577496;27;20047;-77
2023/12/12 12:08:57;;;;;;;5.53;1.92;;;;;;;23.02;67.01;101130.38;10585781;27;20046;-77
2023/12/12 12:14:23;;;;;;;8.77;3.33;;;;;;;22.44;69.38;101144.56;10557251;28;20043;-77
2023/12/12 12:19:45;;;;;;;6.55;2.58;;;;;;;21.99;75.69;101154.69;10581891;27;20079;-77
2023/12/12 12:25:09;;;;;;;4.63;1.67;;;;;;;21.53;81.36;101172.84;10601567;27;20084;-77
2023/12/12 12:30:45;;;;;;;7.93;5.35;;;;;;;21.17;85.78;101153.94;10566089;28;20051;-78
2023/12/12 12:36:08;;;;;;;3.10;1.45;;;;;;;20.87;91.20;101160.78;10564414;28;20043;-77
2023/12/12 12:41:32;;;;;;;2.67;2.25;;;;;;;20.90;93.51;101165.22;10583410;28;20047;-77
2023/12/12 12:46:54;;;;;;;4.97;2.90;;;;;;;20.85;96.27;101156.38;10577596;28;20449;-76
2023/12/12 12:52:17;;;;;;;8.10;2.90;;;;;;;20.82;99.00;101164.47;10555831;28;20454;-78
2023/12/12 12:57:41;;;;;;;4.32;2.15;;;;;;;21.04;98.98;101181.91;10599646;27;20557;-79
2023/12/12 13:03:03;;;;;;;5.20;1.73;;;;;;;21.42;97.01;101187.38;10596220;27;20051;-77
2023/12/12 13:08:26;;;;;;;11.27;2.80;;;;;;;21.43;98.29;101207.06;10607437;27;20147;-76
2023/12/12 13:13:51;;;;;;;6.15;2.15;;;;;;;21.23;100.00;101198.56;10606900;27;20138;-77
2023/12/12 13:19:13;;;;;;;6.30;2.25;;;;;;;20.85;100.00;101192.16;10596715;27;20039;-78
2023/12/12 13:24:35;;;;;;;4.85;1.63;;;;;;;20.89;100.00;101190.28;10607318;27;20569;-78
2023/12/12 13:29:59;;;;;;;4.53;1.70;;;;;;;20.93;100.00;101190.19;10605584;27;20054;-77
2023/12/12 13:35:23;;;;;;;5.78;1.25;;;;;;;20.86;100.00;101195.72;10605218;27;20077;-78
2023/12/12 13:40:45;;;;;;;3.83;1.98;;;;;;;20.81;100.00;101211.00;10591464;27;20075;-80
2023/12/12 13:46:09;;;;;;;4.32;2.03;;;;;;;20.78;100.00;101213.75;10592320;27;20043;-80
2023/12/12 13:51:31;;;;;;;10.77;2.95;;;;;;;20.73;100.00;101213.84;10598614;27;20055;-77
2023/12/12 13:56:54;;;;;;;15.90;5.00;;;;;;;20.60;100.00;101207.84;10608898;27;20035;-78
2023/12/12 14:02:17;;;;;;;8.98;3.50;;;;;;;20.28;100.00;101199.44;10606554;27;20051;-81
2023/12/12 14:07:40;;;;;;;16.17;5.03;;;;;;;20.12;100.00;101198.81;10579796;27;20100;-81
2023/12/12 14:13:02;;;;;;;8.05;3.47;;;;;;;20.16;100.00;101205.88;10604115;27;20051;-81
2023/12/12 14:18:26;;;;;;;10.50;4.55;;;;;;;20.16;100.00;101194.28;10585061;27;20062;-77
2023/12/12 14:23:48;;;;;;;5.13;2.58;;;;;;;19.94;100.00;101198.22;10604098;27;20051;-76
2023/12/12 14:29:11;;;;;;;6.68;2.97;;;;;;;19.74;100.00;101199.44;10599378;27;20504;-75
2023/12/12 14:34:34;;;;;;;11.70;3.33;;;;;;;19.49;100.00;101200.69;10598355;27;20043;-79
2023/12/12 14:39:57;;;;;;;4.57;2.92;;;;;;;19.17;100.00;101213.56;10603313;27;20055;-78
2023/12/12 14:45:19;;;;;;;6.03;2.70;;;;;;;18.83;100.00;101218.44;10602180;27;20150;-80
2023/12/12 14:50:43;;;;;;;6.70;2.95;;;;;;;18.68;100.00;101209.66;10604625;27;20043;-77
2023/12/12 14:56:11;;;;;;;6.15;2.42;;;;;;;18.54;100.00;101218.69;10606005;27;20103;-81
2023/12/12 15:01:33;;;;;;;6.40;3.50;;;;;;;18.38;100.00;101214.41;10576272;27;20082;-80
2023/12/12 15:06:57;;;;;;;9.43;2.63;;;;;;;18.11;100.00;101213.75;10583739;27;20046;-79
2023/12/12 15:12:19;;;;;;;10.35;4.43;;;;;;;17.79;100.00;101213.94;10588763;27;20048;-79
2023/12/12 15:17:41;;;;;;;13.63;6.80;;;;;;;17.54;100.00;101213.19;10585041;27;20043;-81
2023/12/12 15:23:05;;;;;;;11.68;4.82;;;;;;;17.31;100.00;101214.22;10594879;27;20042;-80
2023/12/12 15:28:28;;;;;;;7.10;4.47;;;;;;;17.16;100.00;101204.50;10599184;27;20051;-76
2023/12/12 15:33:50;;;;;;;21.30;11.20;;;;;;;16.93;100.00;101187.72;10596271;27;20055;-78
2023/12/12 15:39:14;;;;;;;7.82;3.63;;;;;;;16.95;100.00;101192.13;10588575;27;20397;-76
2023/12/12 15:44:36;;;;;;;12.05;6.40;;;;;;;16.86;100.00;101188.63;10577916;27;20046;-77
2023/12/12 15:49:59;;;;;;;15.45;10.15;;;;;;;16.76;100.00;101197.53;10591947;27;20504;-77
2023/12/12 15:55:23;;;;;;;34.72;17.83;;;;;;;16.56;100.00;101206.41;10600496;27;20047;-78
2023/12/12 16:00:45;;;;;;;17.83;11.80;;;;;;;16.48;100.00;101210.88;10615540;27;20054;-77
2023/12/12 16:06:09;;;;;;;19.00;11.23;;;;;;;16.73;100.00;101210.00;10598169;27;20043;-78
2023/12/12 16:11:32;;;;;;;7.55;4.60;;;;;;;16.90;100.00;101190.38;10584083;27;20058;-80
2023/12/12 16:16:55;;;;;;;4.97;2.80;;;;;;;16.79;100.00;101201.09;10596456;27;20560;-78
2023/12/12 16:22:17;;;;;;;6.18;1.52;;;;;;;16.80;100.00;101200.19;10584513;27;20104;-78
2023/12/12 16:27:48;;;;;;;7.00;2.63;;;;;;;16.97;100.00;101200.13;10588370;27;20509;-80
2023/12/12 16:33:11;;;;;;;6.47;2.40;;;;;;;16.92;100.00;101202.81;10595083;27;20070;-79
2023/12/12 16:38:33;;;;;;;16.50;6.97;;;;;;;16.72;100.00;101208.22;10577939;28;20165;-79
2023/12/12 16:44:04;;;;;;;7.50;2.47;;;;;;;16.46;100.00;101210.00;10568131;27;20051;-80
2023/12/12 16:49:28;;;;;;;9.75;3.03;;;;;;;16.58;100.00;101212.66;10528395;28;20059;-79
2023/12/12 16:54:51;;;;;;;5.75;3.70;;;;;;;16.72;100.00;101218.88;10553754;28;20060;-79
2023/12/12 17:00:16;;;;;;;10.05;5.13;;;;;;;16.78;100.00;101220.63;10542158;28;20150;-79
2023/12/12 17:05:39;;;;;;;5.93;3.00;;;;;;;16.79;100.00;101216.19;10537435;28;20043;-79
2023/12/12 17:11:01;;;;;;;9.05;4.93;;;;;;;16.84;100.00;101209.94;10549576;28;20552;-78
2023/12/12 17:16:26;;;;;;;15.80;8.70;;;;;;;17.20;100.00;101218.72;10573741;28;20443;-78
2023/12/12 17:21:48;;;;;;;21.60;9.50;;;;;;;17.25;100.00;101223.16;10546140;28;20423;-76
2023/12/12 17:27:11;;;;;;;10.38;5.38;;;;;;;17.30;100.00;101223.13;10551450;28;20895;-77
2023/12/12 17:32:34;;;;;;;12.57;5.40;;;;;;;17.02;100.00;101233.88;10556004;28;20054;-79
2023/12/12 17:37:57;;;;;;;13.15;7.43;;;;;;;17.10;100.00;101231.19;10537959;28;20055;-77
2023/12/12 17:43:19;;;;;;;24.70;10.77;;;;;;;17.43;100.00;101217.72;10542667;28;20383;-78
2023/12/12 17:48:43;;;;;;;22.10;9.93;;;;;;;17.68;100.00;101231.84;10577695;28;20054;-77
2023/12/12 17:54:06;;;;;;;17.60;10.35;;;;;;;17.77;100.00;101226.47;10576955;28;20046;-76
2023/12/12 17:59:28;;;;;;;20.98;9.75;;;;;;;17.57;100.00;101235.44;10526471;28;20044;-76
2023/12/12 18:04:52;;;;;;;27.58;14.85;;;;;;;17.37;100.00;101236.44;10554655;28;20485;-77
2023/12/12 18:10:14;;;;;;;26.35;11.60;;;;;;;17.26;100.00;101246.28;10572106;28;20055;-78
2023/12/12 18:15:37;;;;;;;35.67;12.75;;;;;;;17.24;100.00;101260.50;10575663;28;20048;-79
2023/12/12 18:21:01;;;;;;;13.18;8.77;;;;;;;17.15;100.00;101266.75;10566324;28;20101;-79
2023/12/12 18:26:28;;;;;;;19.40;10.27;;;;;;;17.18;100.00;101288.09;10578560;28;20058;-77
2023/12/12 18:31:50;;;;;;;13.90;5.67;;;;;;;17.10;100.00;101287.22;10575182;28;20042;-77
2023/12/12 18:37:14;;;;;;;13.10;6.57;;;;;;;16.82;100.00;101283.72;10577399;28;20047;-78
2023/12/12 18:42:38;;;;;;;14.02;5.53;;;;;;;16.41;100.00;101286.38;10578598;28;20044;-79
2023/12/12 18:48:01;;;;;;;6.80;2.13;;;;;;;16.11;100.00;101289.03;10580061;27;20083;-79
2023/12/12 18:53:25;;;;;;;30.25;18.17;;;;;;;16.02;100.00;101281.00;10593477;27;20059;-77
2023/12/12 18:58:50;;;;;;;12.43;5.45;;;;;;;15.92;100.00;101282.78;10589422;27;20107;-77
2023/12/12 19:04:13;;;;;;;13.68;8.25;;;;;;;15.98;100.00;101290.78;10592834;27;20035;-77
2023/12/12 19:09:37;;;;;;;16.98;11.48;;;;;;;15.90;100.00;101273.91;10574902;27;20054;-78
2023/12/12 19:14:59;;;;;;;25.38;19.10;;;;;;;16.02;100.00;101275.69;10564242;27;20039;-78
2023/12/12 19:20:22;;;;;;;18.00;6.70;;;;;;;16.20;100.00;101276.63;10578312;27;20485;-78
2023/12/12 19:25:45;;;;;;;7.75;3.75;;;;;;;16.25;100.00;101273.94;10592228;27;20055;-77
2023/12/12 19:31:08;;;;;;;6.78;2.50;;;;;;;16.35;100.00;101289.94;10606406;27;20046;-78
2023/12/12 19:36:30;;;;;;;3.80;2.20;;;;;;;16.22;100.00;101273.94;10600505;27;20633;-78
2023/12/12 19:41:56;;;;;;;8.60;2.30;;;;;;;16.00;100.00;101290.78;10564080;28;20151;-77
2023/12/12 19:47:19;;;;;;;9.50;2.17;;;;;;;15.94;100.00;101294.34;10582085;27;20051;-77
2023/12/12 19:52:42;;;;;;;3.75;1.85;;;;;;;16.13;100.00;101300.59;10576662;27;20051;-77
2023/12/12 19:58:06;;;;;;;4.13;1.95;;;;;;;16.33;100.00;101288.19;10580912;27;20066;-77
2023/12/12 20:03:28;;;;;;;4.82;2.20;;;;;;;16.40;100.00;101295.28;10594962;27;20060;-76
2023/12/12 20:08:50;;;;;;;7.20;3.92;;;;;;;16.32;100.00;101289.06;10591293;27;20046;-77
2023/12/12 20:14:15;;;;;;;7.50;2.95;;;;;;;16.46;100.00;101295.28;10576657;27;20061;-76
2023/12/12 20:19:37;;;;;;;6.10;2.42;;;;;;;16.73;100.00;101295.31;10560736;27;20144;-77
2023/12/12 20:25:01;;;;;;;4.45;1.75;;;;;;;16.81;100.00;101286.38;10588840;27;20549;-77
2023/12/12 20:30:24;;;;;;;6.85;2.42;;;;;;;16.97;100.00;101285.47;10600162;27;20050;-77
2023/12/12 20:35:47;;;;;;;4.65;2.20;;;;;;;17.03;100.00;101289.03;10574526;27;20052;-77
2023/12/12 20:41:11;;;;;;;8.88;6.25;;;;;;;17.14;100.00;101291.66;10582212;28;20520;-77
2023/12/12 20:46:38;;;;;;;15.18;5.30;;;;;;;17.06;100.00;101285.47;10585110;28;20450;-77
2023/12/12 20:52:00;;;;;;;9.18;4.07;;;;;;;16.92;100.00;101301.50;10583818;28;20040;-77
2023/12/12 20:57:23;;;;;;;10.30;6.22;;;;;;;16.82;100.00;101298.84;10579664;28;20055;-77
2023/12/12 21:02:47;;;;;;;5.68;3.50;;;;;;;16.72;100.00;101303.31;10582193;28;20082;-77
2023/12/12 21:08:09;;;;;;;7.47;3.30;;;;;;;16.85;100.00;101298.84;10578918;28;20088;-77
2023/12/12 21:13:32;;;;;;;12.23;3.95;;;;;;;16.94;100.00;101304.13;10579623;28;20051;-77
2023/12/12 21:18:56;;;;;;;6.70;2.90;;;;;;;16.96;100.00;101297.94;10578259;28;20535;-77
2023/12/12 21:24:19;;;;;;;13.60;7.50;;;;;;;16.94;100.00;101293.47;10601647;27;20140;-76
2023/12/12 21:29:41;;;;;;;13.05;5.68;;;;;;;17.07;100.00;101295.22;10593402;27;20243;-77
2023/12/12 21:35:06;;;;;;;21.27;10.88;;;;;;;17.28;100.00;101292.50;10608043;27;20043;-77
2023/12/12 21:40:28;;;;;;;19.52;7.20;;;;;;;17.40;100.00;101281.78;10589554;27;20067;-76
2023/12/12 21:45:52;;;;;;;14.10;6.53;;;;;;;17.60;100.00;101280.78;10564553;27;20047;-76
2023/12/12 21:51:17;;;;;;;12.93;3.42;;;;;;;17.83;100.00;101281.63;10573199;27;20046;-77
2023/12/12 21:56:39;;;;;;;11.32;3.65;;;;;;;17.93;100.00;101276.19;10598421;27;20386;-77
2023/12/12 22:02:03;;;;;;;10.52;3.63;;;;;;;17.96;100.00;101285.09;10580735;27;20133;-77
2023/12/12 22:07:27;;;;;;;11.45;2.47;;;;;;;17.91;100.00;101282.47;10579154;27;20550;-77
2023/12/12 22:12:49;;;;;;;8.90;2.15;;;;;;;18.01;100.00;101276.16;10597273;27;20047;-78
2023/12/12 22:18:13;;;;;;;9.32;2.13;;;;;;;18.00;100.00;101281.50;10571054;27;20528;-77
2023/12/12 22:23:37;;;;;;;9.85;4.45;;;;;;;17.71;100.00;101284.34;10595256;27;20488;-78
2023/12/12 22:29:02;;;;;;;10.10;2.55;;;;;;;17.39;100.00;101285.31;10572010;27;20054;-76
2023/12/12 22:34:24;;;;;;;11.13;4.15;;;;;;;17.14;100.00;101289.88;10563047;28;20156;-78
2023/12/12 22:39:48;;;;;;;12.27;3.78;;;;;;;16.88;100.00;101277.47;10583201;27;20067;-77
2023/12/12 22:45:11;;;;;;;11.65;3.97;;;;;;;16.65;100.00;101277.53;10551367;28;20343;-77
2023/12/12 22:50:33;;;;;;;14.65;3.50;;;;;;;16.53;100.00;101280.19;10600509;27;20468;-77
2023/12/12 22:55:57;;;;;;;9.07;3.53;;;;;;;16.31;100.00;101276.63;10598659;27;20046;-77
2023/12/12 23:01:21;;;;;;;11.75;2.55;;;;;;;16.24;100.00;101266.84;10574441;27;20126;-77
2023/12/12 23:06:43;;;;;;;12.18;3.03;;;;;;;16.23;100.00;101265.94;10576536;27;20124;-77
2023/12/12 23:12:08;;;;;;;10.40;2.78;;;;;;;16.06;100.00;101269.50;10551259;27;20055;-77
2023/12/12 23:17:30;;;;;;;6.75;2.80;;;;;;;15.98;100.00;101268.59;10562317;28;20047;-77
2023/12/12 23:22:53;;;;;;;6.20;3.47;;;;;;;15.98;100.00;101281.91;10564448;27;20107;-77
2023/12/12 23:28:17;;;;;;;7.47;2.20;;;;;;;15.93;100.00;101295.22;10579263;27;20055;-78
2023/12/12 23:33:39;;;;;;;3.30;1.67;;;;;;;15.38;100.00;101294.09;10594082;27;20055;-77
2023/12/12 23:39:01;;;;;;;4.70;2.03;;;;;;;15.12;100.00;101291.31;10584465;27;20514;-77
2023/12/12 23:44:25;;;;;;;13.18;2.28;;;;;;;15.19;100.00;101302.88;10566845;27;20039;-77
2023/12/12 23:49:47;;;;;;;7.55;2.33;;;;;;;14.92;100.00;101301.81;10567369;27;20123;-77
2023/12/12 23:55:10;;;;;;;5.57;2.00;;;;;;;14.64;100.00;101299.84;10602571;27;20043;-77
